Ana Sayfa
METAR-TAF:

METAR-TAF

Havaalanları :

Clemson, Güney Carolina, Amerika Birleşik Devletleri

Enlem: 34-40-20N, Boylam: 082-52-53W, yükseklik: 272 m

Güncel hava durumu gözlemi

Rapor saat 05:54 UTC de 47 dakika önce yapıldı.
Rüzgar doğu/güneydoğudan 4 kt
Sıcaklık 22°C
Nem 83%
Basınç 1024 hPa
Görüş mesafesi: 14.5 km
2300 ft yükseklikte parçalı bulutlu
4700 ft yükseklikte parçalı çok bulutlu

METAR: KCEU 230554Z AUTO 11004KT 9SM SCT023 BKN047 22/19 A3023 RMK AO2 SLP226 T02220194 10250 20222 51000

Saat: 02:41 (06:41 UTC)


TAF: eksik

4.000'den fazla havaalanı için hava durumu gözlemleri ve tahminleri (METAR ve TAF raporları).

Kullanılabilir istasyonlar harita üzerinde sarı ve kırmızı noktalarla gösterilir.

İstasyonun adını görmek için fareyi noktanın üzerinde gezdirin.

Sonrasında hava gözlem ve tahminlerini görmek için tıklayın.

Haritayı değiştirmek için: yaklaştırmak için siyah artı işaretli yeşil düğmeye ve uzaklaştırmak için de eksi işaretli düğmeye hızla tıklayın; bitişik haritalar için yeşil okları kullanın.


METAR-TAF: